»·PEaware :: N94006 KSBP-L70

N94006 :: KSBP-L70

FLIGHT INFORMATION

Flight Status: Arrived
Operator: Privately registered:
United States
More flights under this callsign
Pilot: Jerome A. (17490)
Aircraft: BEECH AIRCRAFT DEBONAIR BONANZA
(BE33)
More flights by this aircraft type
Origin: KSBP San Luis Co Regl
United States
Destination: L70 Agua Dulce
United States
More flights between these airports :: More routes between these airports
Route:
File this flight plan on PilotEdge
Remarks:
Altitude:
(Current/Filed)
7,500ft
Speed:
(Current/Filed)
135kts
Departed: 14-Jan-18 02:04 PM
Arrived: 14-Jan-18 03:37 PM
Distance/Time
Traveled:
123nm/1:33
Distance/Time
To Go:
Arrived

Flight Plot

Page will automatically refresh every two minutes.


Map Options




Map Legend


Flown Route
Filed Route
Departure Airport
Arrival Airport
Navaid (VOR, NDB)
Fix

Horizontal Profiles

Position Reports

Time Latitude Longitude Heading Altitude Ground
Speed
14-Jan-18 13:18 35.239065 -120.641579 350 214ft 0kts
14-Jan-18 13:19 35.239065 -120.641579 350 214ft 0kts
14-Jan-18 13:20 35.239065 -120.641579 350 214ft 0kts
14-Jan-18 13:21 35.239065 -120.641579 350 214ft 0kts
14-Jan-18 13:22 35.239065 -120.641579 350 214ft 0kts
14-Jan-18 13:23 35.239065 -120.641579 350 214ft 0kts
14-Jan-18 13:24 35.239065 -120.641579 350 214ft 0kts
14-Jan-18 13:25 35.239065 -120.641579 350 214ft 0kts
14-Jan-18 13:26 35.239065 -120.641579 350 214ft 0kts
14-Jan-18 13:27 35.239065 -120.641579 350 214ft 0kts
14-Jan-18 13:28 35.239065 -120.641579 350 214ft 0kts
14-Jan-18 13:29 35.239065 -120.641579 350 214ft 0kts
14-Jan-18 13:30 35.239065 -120.641579 350 214ft 0kts
14-Jan-18 13:31 35.239065 -120.641579 350 214ft 0kts
14-Jan-18 13:32 35.239065 -120.641579 350 214ft 0kts
14-Jan-18 13:33 35.239065 -120.641579 350 214ft 0kts
14-Jan-18 13:34 35.239065 -120.641579 350 214ft 0kts
14-Jan-18 13:35 35.239065 -120.641579 350 214ft 0kts
14-Jan-18 13:36 35.239065 -120.641579 350 214ft 0kts
14-Jan-18 13:37 35.239065 -120.641579 350 214ft 0kts
14-Jan-18 13:38 35.239065 -120.641579 350 214ft 0kts
14-Jan-18 13:39 35.239065 -120.641579 350 214ft 0kts
14-Jan-18 13:40 35.239065 -120.641579 350 214ft 0kts
14-Jan-18 13:41 35.239065 -120.641579 350 214ft 0kts
14-Jan-18 13:42 35.239065 -120.641579 350 214ft 0kts
14-Jan-18 13:43 35.239065 -120.641579 350 214ft 0kts
14-Jan-18 13:44 35.239065 -120.641579 350 214ft 0kts
14-Jan-18 13:45 35.239065 -120.641579 350 214ft 0kts
14-Jan-18 13:46 35.239065 -120.641579 350 214ft 0kts
14-Jan-18 13:47 35.239065 -120.641579 350 214ft 0kts
14-Jan-18 13:48 35.239065 -120.641579 350 214ft 0kts
14-Jan-18 13:49 35.239069 -120.641580 349 214ft 0kts
14-Jan-18 13:50 35.239069 -120.641580 349 214ft 0kts
14-Jan-18 13:51 35.239069 -120.641580 349 214ft 0kts
14-Jan-18 13:52 35.239076 -120.641582 348 214ft 0kts
14-Jan-18 13:53 35.239076 -120.641582 348 214ft 0kts
14-Jan-18 13:54 35.239075 -120.641639 186 214ft 0kts
14-Jan-18 13:55 35.239075 -120.641639 186 214ft 0kts
14-Jan-18 13:56 35.239075 -120.641639 186 214ft 0kts
14-Jan-18 13:57 35.239075 -120.641639 186 214ft 0kts
14-Jan-18 13:58 35.239075 -120.641639 186 214ft 0kts
14-Jan-18 13:59 35.239075 -120.641639 186 214ft 0kts
14-Jan-18 14:00 35.239075 -120.641639 186 214ft 0kts
14-Jan-18 14:01 35.239075 -120.641639 186 214ft 0kts
14-Jan-18 14:02 35.239075 -120.641639 186 214ft 0kts
14-Jan-18 14:03 35.239075 -120.641639 186 214ft 0kts
14-Jan-18 14:04 35.239075 -120.641639 186 214ft 0kts
14-Jan-18 14:05 35.239075 -120.641639 186 214ft 0kts
14-Jan-18 14:06 35.239075 -120.641639 186 214ft 0kts
14-Jan-18 14:07 35.239075 -120.641639 186 214ft 0kts
14-Jan-18 14:08 35.239075 -120.641639 186 214ft 0kts
14-Jan-18 14:09 35.239075 -120.641639 186 214ft 0kts
14-Jan-18 14:10 35.234147 -120.633400 120 215ft 41kts
14-Jan-18 14:11 35.233130 -120.632318 153 214ft 0kts
14-Jan-18 14:12 35.233254 -120.633900 302 215ft 47kts
14-Jan-18 14:13 35.248875 -120.658594 314 1136ft 98kts
14-Jan-18 14:14 35.233718 -120.677263 157 2047ft 116kts
14-Jan-18 14:15 35.208128 -120.653227 144 3064ft 117kts
14-Jan-18 14:16 35.188978 -120.620744 115 3968ft 124kts
14-Jan-18 14:17 35.178019 -120.581185 95 4893ft 125kts
14-Jan-18 14:18 35.173895 -120.538495 92 5792ft 125kts
14-Jan-18 14:19 35.171542 -120.496654 98 6778ft 123kts
14-Jan-18 14:20 35.162628 -120.455278 117 7430ft 149kts
14-Jan-18 14:27 35.239074 -120.641570 350 214ft 0kts
14-Jan-18 14:28 35.239074 -120.641570 350 214ft 0kts
14-Jan-18 14:29 35.239074 -120.641570 350 214ft 0kts
14-Jan-18 14:30 35.239074 -120.641570 350 214ft 0kts
14-Jan-18 14:31 35.239074 -120.641570 350 214ft 0kts
14-Jan-18 14:32 35.239074 -120.641570 350 214ft 0kts
14-Jan-18 14:33 35.239074 -120.641570 350 214ft 0kts
14-Jan-18 14:34 35.239074 -120.641570 350 214ft 0kts
14-Jan-18 14:35 35.238384 -120.641023 117 214ft 23kts
14-Jan-18 14:36 35.233331 -120.632388 194 214ft 0kts
14-Jan-18 14:37 35.233217 -120.632434 198 214ft 10kts
14-Jan-18 14:38 35.243191 -120.652158 299 619ft 106kts
14-Jan-18 14:39 35.229284 -120.675140 154 1664ft 109kts
14-Jan-18 14:40 35.204053 -120.647476 133 2477ft 123kts
14-Jan-18 14:41 35.182951 -120.615160 109 3473ft 117kts
14-Jan-18 14:42 35.180732 -120.575338 82 4381ft 118kts
14-Jan-18 14:43 35.182381 -120.534352 92 5290ft 119kts
14-Jan-18 14:44 35.180364 -120.492171 89 6177ft 124kts
14-Jan-18 14:45 35.173899 -120.451515 106 7118ft 129kts
14-Jan-18 14:46 35.163151 -120.404090 102 7392ft 159kts
14-Jan-18 14:47 35.151181 -120.350097 105 7598ft 164kts
14-Jan-18 14:48 35.142993 -120.294660 104 7807ft 166kts
14-Jan-18 14:49 35.128819 -120.240530 109 7953ft 165kts
14-Jan-18 14:50 35.111827 -120.186198 111 7824ft 174kts
14-Jan-18 14:51 35.094470 -120.130193 108 7573ft 177kts
14-Jan-18 14:52 35.079411 -120.072964 107 7450ft 176kts
14-Jan-18 14:53 35.061884 -120.018352 110 7409ft 175kts
14-Jan-18 14:54 35.045173 -119.962515 108 7294ft 173kts
14-Jan-18 14:55 35.028990 -119.907729 109 7328ft 169kts
14-Jan-18 14:56 35.013349 -119.854631 112 7425ft 168kts
14-Jan-18 14:57 34.991819 -119.805205 119 7566ft 168kts
14-Jan-18 14:58 34.968891 -119.754130 114 7457ft 172kts
14-Jan-18 14:59 34.952559 -119.699990 106 7485ft 171kts
14-Jan-18 15:00 34.939152 -119.644474 105 7472ft 171kts
14-Jan-18 15:01 34.920855 -119.592437 119 7739ft 158kts
14-Jan-18 15:02 34.900228 -119.549555 120 8575ft 135kts
14-Jan-18 15:03 34.882689 -119.508018 113 9235ft 144kts
14-Jan-18 15:04 34.861657 -119.464554 120 9737ft 143kts
14-Jan-18 15:05 34.845731 -119.420663 100 10438ft 146kts
14-Jan-18 15:06 34.845931 -119.371878 86 11131ft 145kts
14-Jan-18 15:07 34.837334 -119.322358 108 11437ft 163kts
14-Jan-18 15:08 34.822919 -119.269099 112 11639ft 167kts
14-Jan-18 15:09 34.804165 -119.216323 115 11710ft 175kts
14-Jan-18 15:10 34.781695 -119.163246 120 11691ft 177kts
14-Jan-18 15:11 34.759237 -119.110401 113 11785ft 174kts
14-Jan-18 15:12 34.738440 -119.056463 115 11745ft 179kts
14-Jan-18 15:13 34.716187 -119.003432 115 11800ft 176kts
14-Jan-18 15:14 34.695755 -118.949225 112 11817ft 176kts
14-Jan-18 15:15 34.679710 -118.892973 107 11764ft 178kts
14-Jan-18 15:16 34.665969 -118.837170 103 11935ft 172kts
14-Jan-18 15:17 34.653331 -118.780343 107 12010ft 174kts
14-Jan-18 15:18 34.639646 -118.722883 106 11957ft 179kts
14-Jan-18 15:19 34.626311 -118.665011 103 11956ft 178kts
14-Jan-18 15:20 34.611648 -118.608095 109 11926ft 178kts
14-Jan-18 15:21 34.597533 -118.550994 106 11916ft 178kts
14-Jan-18 15:22 34.587154 -118.492721 98 11929ft 177kts
14-Jan-18 15:23 34.586263 -118.433640 84 11911ft 178kts
14-Jan-18 15:24 34.571367 -118.382782 136 12378ft 163kts
14-Jan-18 15:25 34.530484 -118.355747 168 12361ft 174kts
14-Jan-18 15:26 34.482258 -118.349598 188 12260ft 181kts
14-Jan-18 15:27 34.444973 -118.386881 243 12106ft 186kts
14-Jan-18 15:28 34.455608 -118.422959 65 10737ft 203kts
14-Jan-18 15:29 34.469422 -118.363229 79 9936ft 171kts
14-Jan-18 15:30 34.478330 -118.307676 74 8790ft 166kts
14-Jan-18 15:31 34.491664 -118.254410 64 7707ft 164kts
14-Jan-18 15:32 34.512337 -118.206168 72 6651ft 161kts
14-Jan-18 15:33 34.516388 -118.153794 100 5716ft 153kts
14-Jan-18 15:34 34.491694 -118.161687 227 5510ft 135kts
14-Jan-18 15:35 34.481132 -118.187706 247 5147ft 139kts
14-Jan-18 15:36 34.481782 -118.214382 297 4889ft 133kts
14-Jan-18 15:37 34.500539 -118.256343 295 3961ft 153kts
14-Jan-18 15:38 34.507797 -118.301161 261 4333ft 130kts
14-Jan-18 15:39 34.505654 -118.345435 263 4122ft 139kts
14-Jan-18 15:40 34.499638 -118.330775 55 3575ft 127kts
14-Jan-18 15:41 34.516148 -118.305787 52 3546ft 83kts
14-Jan-18 15:42 34.510618 -118.301335 239 2954ft 78kts
14-Jan-18 15:43 34.503891 -118.311716 94 2664ft 2kts
14-Jan-18 15:44 34.503921 -118.311359 234 2664ft 0kts
14-Jan-18 15:45 34.503921 -118.311359 234 2664ft 0kts
14-Jan-18 15:46 34.503921 -118.311359 234 2664ft 0kts
14-Jan-18 15:47 34.503921 -118.311359 234 2664ft 0kts
14-Jan-18 15:48 34.503921 -118.311359 234 2664ft 0kts
14-Jan-18 15:49 34.503921 -118.311359 234 2664ft 0kts
14-Jan-18 15:50 34.503921 -118.311359 234 2664ft 0kts
14-Jan-18 15:51 34.503921 -118.311359 234 2664ft 0kts
14-Jan-18 15:52 34.503921 -118.311359 234 2664ft 0kts
14-Jan-18 15:53 34.503921 -118.311359 234 2663ft 0kts
14-Jan-18 15:54 34.503921 -118.311359 234 2663ft 0kts
14-Jan-18 15:55 34.503921 -118.311359 234 2663ft 0kts
14-Jan-18 15:56 34.503921 -118.311359 234 2663ft 0kts
14-Jan-18 15:57 34.503921 -118.311359 234 2663ft 0kts

Navigation Log

Ident Type
Flight plan parsing failed, navigation log unavailable